createdAt,value
2023-05-11T00:00:37.199Z,48.87
2023-05-11T00:09:11.384Z,48.65
2023-05-11T00:17:34.269Z,48.62
2023-05-11T00:25:57.126Z,48.54
2023-05-11T00:34:20.053Z,48.46
2023-05-11T00:42:42.905Z,48.30
2023-05-11T00:51:07.103Z,48.45
2023-05-11T00:59:30.389Z,48.28
2023-05-11T01:08:05.640Z,48.43
2023-05-11T01:16:34.551Z,48.31
2023-05-11T01:25:32.323Z,48.50
2023-05-11T01:34:02.469Z,48.42
2023-05-11T01:42:32.125Z,48.34
2023-05-11T01:51:00.551Z,48.33
2023-05-11T01:59:26.188Z,48.28
2023-05-11T02:07:55.665Z,48.26
2023-05-11T02:16:19.851Z,48.29
2023-05-11T02:24:44.595Z,48.41
2023-05-11T02:33:09.368Z,48.24
2023-05-11T02:41:34.207Z,48.30
2023-05-11T02:50:00.528Z,48.27
2023-05-11T02:58:24.259Z,48.31
2023-05-11T03:06:54.078Z,48.15
2023-05-11T03:15:17.910Z,48.18
2023-05-11T03:23:42.174Z,48.01
2023-05-11T03:32:06.041Z,48.16
2023-05-11T03:40:33.510Z,48.21
2023-05-11T03:48:58.307Z,48.66
2023-05-11T03:57:26.223Z,49.04
2023-05-11T04:05:49.129Z,49.19
2023-05-11T04:14:12.368Z,49.43
2023-05-11T04:22:35.297Z,49.30
2023-05-11T04:30:58.825Z,49.13
2023-05-11T04:39:21.761Z,49.24
2023-05-11T04:47:44.935Z,49.13
2023-05-11T04:56:08.175Z,49.33
2023-05-11T05:04:31.599Z,49.33
2023-05-11T05:12:55.918Z,49.45
2023-05-11T05:21:18.928Z,49.50
2023-05-11T05:29:42.004Z,49.48
2023-05-11T05:38:05.160Z,49.55
2023-05-11T05:46:28.438Z,49.56
2023-05-11T05:54:51.495Z,49.68
2023-05-11T06:03:14.740Z,49.97
2023-05-11T06:11:38.261Z,50.05
2023-05-11T06:20:01.515Z,50.09
2023-05-11T06:28:25.763Z,50.18
2023-05-11T06:36:52.923Z,50.23
2023-05-11T06:45:17.655Z,50.36
2023-05-11T06:53:40.770Z,50.40
2023-05-11T07:02:06.234Z,50.44
2023-05-11T07:10:29.260Z,50.57
2023-05-11T07:18:52.310Z,50.52
2023-05-11T07:27:15.279Z,50.51
2023-05-11T07:35:38.307Z,50.55
2023-05-11T07:44:01.966Z,50.55
2023-05-11T07:52:24.866Z,50.65
2023-05-11T08:00:47.928Z,50.67
2023-05-11T08:09:11.147Z,50.75
2023-05-11T08:17:34.350Z,50.65
2023-05-11T08:25:57.787Z,50.63
2023-05-11T08:34:20.668Z,50.68
2023-05-11T08:42:46.773Z,50.70
2023-05-11T08:51:09.992Z,50.68
2023-05-11T08:59:34.433Z,50.67
2023-05-11T09:08:02.508Z,50.67
2023-05-11T09:16:36.091Z,50.63
2023-05-11T09:25:02.027Z,50.70
2023-05-11T09:33:26.269Z,50.85
2023-05-11T09:41:49.975Z,50.79
2023-05-11T09:50:18.677Z,50.65
2023-05-11T09:58:57.623Z,50.54
2023-05-11T10:07:35.013Z,50.49
2023-05-11T10:16:03.399Z,50.63
2023-05-11T10:24:27.301Z,50.57
2023-05-11T10:32:51.629Z,50.59
2023-05-11T10:41:40.028Z,50.63
2023-05-11T10:50:18.391Z,50.55
2023-05-11T10:59:21.976Z,50.53
2023-05-11T11:08:07.282Z,50.60
2023-05-11T11:16:30.977Z,50.53
2023-05-11T11:24:54.012Z,50.50
2023-05-11T11:33:16.896Z,50.33
2023-05-11T11:41:41.258Z,50.43
2023-05-11T11:50:13.349Z,50.39
2023-05-11T11:58:45.203Z,50.41
2023-05-11T12:07:09.974Z,50.32
2023-05-11T12:15:33.184Z,50.08
2023-05-11T12:23:58.274Z,49.93
2023-05-11T12:32:31.576Z,50.05
2023-05-11T12:40:54.510Z,50.04
2023-05-11T12:49:24.835Z,49.87
2023-05-11T12:57:50.486Z,49.96
2023-05-11T13:06:13.715Z,49.83
2023-05-11T13:14:36.950Z,49.73
2023-05-11T13:23:04.570Z,49.67
2023-05-11T13:31:27.749Z,49.86
2023-05-11T13:39:50.772Z,49.78
2023-05-11T13:48:13.729Z,49.70
2023-05-11T13:56:36.793Z,49.70
2023-05-11T14:04:59.869Z,49.72
2023-05-11T14:13:24.025Z,49.57
2023-05-11T14:21:47.238Z,49.35
2023-05-11T14:30:10.570Z,49.48
2023-05-11T14:38:33.743Z,49.55
2023-05-11T14:46:56.758Z,49.26
2023-05-11T14:55:20.146Z,49.42
2023-05-11T15:03:43.345Z,49.12
2023-05-11T15:12:06.506Z,49.22
2023-05-11T15:20:29.762Z,49.13
2023-05-11T15:28:52.647Z,48.98
2023-05-11T15:37:15.942Z,48.88
2023-05-11T15:45:39.039Z,49.03
2023-05-11T15:54:01.930Z,48.72
2023-05-11T16:02:25.012Z,48.65
2023-05-11T16:10:47.934Z,48.79
2023-05-11T16:19:10.921Z,48.62
2023-05-11T16:27:33.820Z,48.59
2023-05-11T16:35:57.292Z,48.50
2023-05-11T16:44:20.138Z,48.65
2023-05-11T16:52:43.272Z,48.48
2023-05-11T17:01:06.308Z,48.41
2023-05-11T17:09:29.788Z,48.30
2023-05-11T17:17:53.347Z,48.22
2023-05-11T17:26:16.779Z,48.18
2023-05-11T17:34:39.686Z,47.89
2023-05-11T17:43:03.043Z,48.04
2023-05-11T17:51:26.087Z,47.79
2023-05-11T17:59:49.929Z,47.67
2023-05-11T18:08:14.193Z,47.68
2023-05-11T18:16:37.291Z,47.65
2023-05-11T18:25:00.483Z,47.27
2023-05-11T18:33:23.887Z,47.38
2023-05-11T18:41:47.470Z,47.22
2023-05-11T18:50:11.201Z,47.19
2023-05-11T18:58:34.037Z,47.17
2023-05-11T19:06:56.911Z,47.04
2023-05-11T19:15:19.928Z,46.89
2023-05-11T19:23:42.743Z,46.89
2023-05-11T19:32:06.217Z,46.77
2023-05-11T19:48:56.160Z,46.54
2023-05-11T19:57:19.940Z,46.58
2023-05-11T20:05:43.564Z,46.51
2023-05-11T20:14:06.748Z,46.41
2023-05-11T20:22:31.097Z,46.33
2023-05-11T20:30:56.371Z,46.27
2023-05-11T20:39:20.887Z,46.29
2023-05-11T20:47:44.174Z,46.26
2023-05-11T20:56:10.138Z,46.31
2023-05-11T21:04:34.003Z,46.21
2023-05-11T21:12:56.917Z,46.09
2023-05-11T21:21:19.858Z,46.16
2023-05-11T21:29:42.704Z,46.27
2023-05-11T21:38:05.857Z,46.25
2023-05-11T21:46:28.864Z,46.19
2023-05-11T21:54:51.842Z,46.27
2023-05-11T22:03:14.751Z,46.22
2023-05-11T22:11:38.956Z,46.08
2023-05-11T22:20:02.468Z,46.01
2023-05-11T22:28:25.357Z,46.07
2023-05-11T22:36:48.220Z,46.18
2023-05-11T22:45:11.287Z,46.05
2023-05-11T22:53:34.254Z,46.07
2023-05-11T23:02:01.692Z,46.02
2023-05-11T23:10:24.734Z,46.03
2023-05-11T23:18:47.735Z,45.85
2023-05-11T23:27:10.725Z,45.88
2023-05-11T23:35:33.960Z,45.79
2023-05-11T23:43:56.822Z,45.69
2023-05-11T23:52:19.859Z,45.71
